sensor_id;sensor_type;location;lat;lon;timestamp;temperature;humidity
14873;DHT22;7528;48.576;19.122;2022-07-29T00:03:46;22.90;56.70
14873;DHT22;7528;48.576;19.122;2022-07-29T00:08:49;22.80;56.80
14873;DHT22;7528;48.576;19.122;2022-07-29T00:13:52;22.80;57.10
14873;DHT22;7528;48.576;19.122;2022-07-29T00:18:57;22.70;57.30
14873;DHT22;7528;48.576;19.122;2022-07-29T00:24:00;22.70;57.40
14873;DHT22;7528;48.576;19.122;2022-07-29T00:29:04;22.70;57.50
14873;DHT22;7528;48.576;19.122;2022-07-29T00:34:09;22.50;57.80
14873;DHT22;7528;48.576;19.122;2022-07-29T00:39:33;22.50;58.10
14873;DHT22;7528;48.576;19.122;2022-07-29T00:44:37;22.50;58.40
14873;DHT22;7528;48.576;19.122;2022-07-29T00:49:42;22.30;58.50
14873;DHT22;7528;48.576;19.122;2022-07-29T00:54:45;22.30;58.70
14873;DHT22;7528;48.576;19.122;2022-07-29T00:59:48;22.20;59.10
14873;DHT22;7528;48.576;19.122;2022-07-29T01:04:53;22.20;59.00
14873;DHT22;7528;48.576;19.122;2022-07-29T01:09:57;22.20;58.90
14873;DHT22;7528;48.576;19.122;2022-07-29T01:15:02;22.20;58.90
14873;DHT22;7528;48.576;19.122;2022-07-29T01:20:14;22.20;59.10
14873;DHT22;7528;48.576;19.122;2022-07-29T01:25:44;22.20;59.40
14873;DHT22;7528;48.576;19.122;2022-07-29T01:30:51;22.30;59.50
14873;DHT22;7528;48.576;19.122;2022-07-29T01:35:55;22.20;59.70
14873;DHT22;7528;48.576;19.122;2022-07-29T01:41:03;22.10;59.80
14873;DHT22;7528;48.576;19.122;2022-07-29T01:46:13;22.10;59.80
14873;DHT22;7528;48.576;19.122;2022-07-29T01:51:20;22.00;59.80
14873;DHT22;7528;48.576;19.122;2022-07-29T01:56:23;22.00;60.00
14873;DHT22;7528;48.576;19.122;2022-07-29T02:01:30;22.00;60.00
14873;DHT22;7528;48.576;19.122;2022-07-29T02:06:35;22.00;60.00
14873;DHT22;7528;48.576;19.122;2022-07-29T02:11:40;21.90;60.10
14873;DHT22;7528;48.576;19.122;2022-07-29T02:16:47;21.90;60.40
14873;DHT22;7528;48.576;19.122;2022-07-29T02:21:52;21.80;60.80
14873;DHT22;7528;48.576;19.122;2022-07-29T02:26:58;21.70;61.20
14873;DHT22;7528;48.576;19.122;2022-07-29T02:32:05;21.70;61.30
14873;DHT22;7528;48.576;19.122;2022-07-29T02:37:10;21.60;61.20
14873;DHT22;7528;48.576;19.122;2022-07-29T02:42:16;21.60;61.60
14873;DHT22;7528;48.576;19.122;2022-07-29T02:47:24;21.50;61.70
14873;DHT22;7528;48.576;19.122;2022-07-29T02:52:34;21.50;62.40
14873;DHT22;7528;48.576;19.122;2022-07-29T02:57:43;21.50;62.40
14873;DHT22;7528;48.576;19.122;2022-07-29T03:02:51;21.50;62.40
14873;DHT22;7528;48.576;19.122;2022-07-29T03:07:58;21.30;62.60
14873;DHT22;7528;48.576;19.122;2022-07-29T03:13:04;21.30;62.60
14873;DHT22;7528;48.576;19.122;2022-07-29T03:18:09;21.30;62.40
14873;DHT22;7528;48.576;19.122;2022-07-29T03:23:18;21.30;62.40
14873;DHT22;7528;48.576;19.122;2022-07-29T03:28:22;21.20;62.80
14873;DHT22;7528;48.576;19.122;2022-07-29T03:33:27;21.20;63.00
14873;DHT22;7528;48.576;19.122;2022-07-29T03:38:34;21.20;63.40
14873;DHT22;7528;48.576;19.122;2022-07-29T03:43:39;21.20;63.40
14873;DHT22;7528;48.576;19.122;2022-07-29T03:48:46;21.20;63.40
14873;DHT22;7528;48.576;19.122;2022-07-29T03:53:51;21.20;63.60
14873;DHT22;7528;48.576;19.122;2022-07-29T03:58:55;21.20;63.60
14873;DHT22;7528;48.576;19.122;2022-07-29T04:04:01;21.20;64.00
14873;DHT22;7528;48.576;19.122;2022-07-29T04:09:04;21.10;64.00
14873;DHT22;7528;48.576;19.122;2022-07-29T04:14:07;21.10;64.10
14873;DHT22;7528;48.576;19.122;2022-07-29T04:19:11;21.10;64.50
14873;DHT22;7528;48.576;19.122;2022-07-29T04:24:14;21.10;64.30
14873;DHT22;7528;48.576;19.122;2022-07-29T04:29:17;21.10;64.30
14873;DHT22;7528;48.576;19.122;2022-07-29T04:34:23;21.10;64.20
14873;DHT22;7528;48.576;19.122;2022-07-29T04:39:26;21.20;65.00
14873;DHT22;7528;48.576;19.122;2022-07-29T04:44:29;21.30;64.80
14873;DHT22;7528;48.576;19.122;2022-07-29T04:49:33;21.30;65.00
14873;DHT22;7528;48.576;19.122;2022-07-29T04:54:36;21.20;65.10
14873;DHT22;7528;48.576;19.122;2022-07-29T04:59:39;21.30;65.60
14873;DHT22;7528;48.576;19.122;2022-07-29T05:04:44;21.40;65.40
14873;DHT22;7528;48.576;19.122;2022-07-29T05:09:47;21.50;65.10
14873;DHT22;7528;48.576;19.122;2022-07-29T05:14:50;21.60;65.70
14873;DHT22;7528;48.576;19.122;2022-07-29T05:19:54;21.70;65.20
14873;DHT22;7528;48.576;19.122;2022-07-29T05:24:57;21.80;64.90
14873;DHT22;7528;48.576;19.122;2022-07-29T05:30:00;21.80;65.10
14873;DHT22;7528;48.576;19.122;2022-07-29T05:35:06;21.80;65.50
14873;DHT22;7528;48.576;19.122;2022-07-29T05:40:09;22.00;65.50
14873;DHT22;7528;48.576;19.122;2022-07-29T05:45:13;22.10;64.90
14873;DHT22;7528;48.576;19.122;2022-07-29T05:50:17;22.20;64.80
14873;DHT22;7528;48.576;19.122;2022-07-29T05:55:21;22.40;63.40
14873;DHT22;7528;48.576;19.122;2022-07-29T06:00:24;22.50;63.30
14873;DHT22;7528;48.576;19.122;2022-07-29T06:05:28;22.60;62.70
14873;DHT22;7528;48.576;19.122;2022-07-29T06:10:31;22.70;62.80
14873;DHT22;7528;48.576;19.122;2022-07-29T06:15:35;22.80;63.00
14873;DHT22;7528;48.576;19.122;2022-07-29T06:20:39;23.00;61.80
14873;DHT22;7528;48.576;19.122;2022-07-29T06:25:42;23.20;61.70
14873;DHT22;7528;48.576;19.122;2022-07-29T06:30:45;23.40;60.60
14873;DHT22;7528;48.576;19.122;2022-07-29T06:35:50;23.60;60.00
14873;DHT22;7528;48.576;19.122;2022-07-29T06:40:53;23.80;59.20
14873;DHT22;7528;48.576;19.122;2022-07-29T06:46:09;24.00;58.90
14873;DHT22;7528;48.576;19.122;2022-07-29T06:51:14;24.20;58.20
14873;DHT22;7528;48.576;19.122;2022-07-29T06:56:18;24.40;57.10
14873;DHT22;7528;48.576;19.122;2022-07-29T07:01:21;24.60;57.10
14873;DHT22;7528;48.576;19.122;2022-07-29T07:06:25;24.80;56.70
14873;DHT22;7528;48.576;19.122;2022-07-29T07:11:29;25.00;56.30
14873;DHT22;7528;48.576;19.122;2022-07-29T07:16:32;25.10;55.50
14873;DHT22;7528;48.576;19.122;2022-07-29T07:21:36;25.40;54.70
14873;DHT22;7528;48.576;19.122;2022-07-29T07:26:39;25.60;54.60
14873;DHT22;7528;48.576;19.122;2022-07-29T07:31:43;25.90;54.20
14873;DHT22;7528;48.576;19.122;2022-07-29T07:36:48;26.10;53.10
14873;DHT22;7528;48.576;19.122;2022-07-29T07:41:51;26.30;52.60
14873;DHT22;7528;48.576;19.122;2022-07-29T07:46:54;26.50;51.90
14873;DHT22;7528;48.576;19.122;2022-07-29T07:51:58;26.80;50.70
14873;DHT22;7528;48.576;19.122;2022-07-29T07:57:02;27.00;48.40
14873;DHT22;7528;48.576;19.122;2022-07-29T08:02:05;27.30;47.60
14873;DHT22;7528;48.576;19.122;2022-07-29T08:07:10;27.60;46.20
14873;DHT22;7528;48.576;19.122;2022-07-29T08:12:13;27.90;46.60
14873;DHT22;7528;48.576;19.122;2022-07-29T08:17:16;28.10;45.70
14873;DHT22;7528;48.576;19.122;2022-07-29T08:22:20;28.30;45.60
14873;DHT22;7528;48.576;19.122;2022-07-29T08:27:24;28.60;44.20
14873;DHT22;7528;48.576;19.122;2022-07-29T08:32:28;28.80;42.90
14873;DHT22;7528;48.576;19.122;2022-07-29T08:37:34;29.00;43.50
14873;DHT22;7528;48.576;19.122;2022-07-29T08:42:37;29.20;43.80
14873;DHT22;7528;48.576;19.122;2022-07-29T08:47:41;29.40;43.80
14873;DHT22;7528;48.576;19.122;2022-07-29T08:52:46;29.70;42.40
14873;DHT22;7528;48.576;19.122;2022-07-29T08:57:49;29.90;42.20
14873;DHT22;7528;48.576;19.122;2022-07-29T09:02:57;30.10;41.50
14873;DHT22;7528;48.576;19.122;2022-07-29T09:08:03;30.30;40.80
14873;DHT22;7528;48.576;19.122;2022-07-29T09:13:07;30.60;40.30
14873;DHT22;7528;48.576;19.122;2022-07-29T09:18:10;30.80;40.20
14873;DHT22;7528;48.576;19.122;2022-07-29T09:23:15;31.00;39.90
14873;DHT22;7528;48.576;19.122;2022-07-29T09:28:18;31.30;39.30
14873;DHT22;7528;48.576;19.122;2022-07-29T09:33:21;31.60;39.00
14873;DHT22;7528;48.576;19.122;2022-07-29T09:38:26;31.90;39.90
14873;DHT22;7528;48.576;19.122;2022-07-29T09:43:30;32.40;37.80
14873;DHT22;7528;48.576;19.122;2022-07-29T09:48:33;32.70;37.20
14873;DHT22;7528;48.576;19.122;2022-07-29T09:53:38;32.90;37.10
14873;DHT22;7528;48.576;19.122;2022-07-29T09:58:41;33.10;35.50
14873;DHT22;7528;48.576;19.122;2022-07-29T10:03:51;32.90;35.90
14873;DHT22;7528;48.576;19.122;2022-07-29T10:09:07;33.00;36.70
14873;DHT22;7528;48.576;19.122;2022-07-29T10:14:10;33.10;36.60
14873;DHT22;7528;48.576;19.122;2022-07-29T10:19:14;33.10;36.10
14873;DHT22;7528;48.576;19.122;2022-07-29T10:24:18;33.10;36.00
14873;DHT22;7528;48.576;19.122;2022-07-29T10:29:22;33.00;34.40
14873;DHT22;7528;48.576;19.122;2022-07-29T10:34:32;33.10;35.90
14873;DHT22;7528;48.576;19.122;2022-07-29T10:39:50;33.30;35.80
14873;DHT22;7528;48.576;19.122;2022-07-29T10:44:56;33.40;35.00
14873;DHT22;7528;48.576;19.122;2022-07-29T10:50:01;33.40;35.10
14873;DHT22;7528;48.576;19.122;2022-07-29T10:55:06;33.50;34.80
14873;DHT22;7528;48.576;19.122;2022-07-29T11:00:30;33.50;35.20
14873;DHT22;7528;48.576;19.122;2022-07-29T11:05:51;33.40;35.00
14873;DHT22;7528;48.576;19.122;2022-07-29T11:11:31;33.30;34.10
14873;DHT22;7528;48.576;19.122;2022-07-29T11:17:02;33.10;34.70
14873;DHT22;7528;48.576;19.122;2022-07-29T11:22:08;32.70;38.10
14873;DHT22;7528;48.576;19.122;2022-07-29T11:27:16;32.20;41.20
14873;DHT22;7528;48.576;19.122;2022-07-29T11:32:21;31.60;47.00
14873;DHT22;7528;48.576;19.122;2022-07-29T11:37:24;31.30;49.20
14873;DHT22;7528;48.576;19.122;2022-07-29T11:42:39;31.10;51.50
14873;DHT22;7528;48.576;19.122;2022-07-29T11:47:49;30.90;52.60
14873;DHT22;7528;48.576;19.122;2022-07-29T11:52:53;30.50;51.70
14873;DHT22;7528;48.576;19.122;2022-07-29T11:57:59;30.30;48.90
14873;DHT22;7528;48.576;19.122;2022-07-29T12:03:03;30.10;55.70
14873;DHT22;7528;48.576;19.122;2022-07-29T12:08:12;30.10;57.70
14873;DHT22;7528;48.576;19.122;2022-07-29T12:13:18;29.80;58.00
14873;DHT22;7528;48.576;19.122;2022-07-29T12:18:22;29.60;58.10
14873;DHT22;7528;48.576;19.122;2022-07-29T12:23:25;29.20;58.30
14873;DHT22;7528;48.576;19.122;2022-07-29T12:28:29;29.00;55.40
14873;DHT22;7528;48.576;19.122;2022-07-29T12:33:32;28.70;58.00
14873;DHT22;7528;48.576;19.122;2022-07-29T12:38:36;28.60;60.80
14873;DHT22;7528;48.576;19.122;2022-07-29T12:43:52;28.50;61.20
14873;DHT22;7528;48.576;19.122;2022-07-29T12:48:55;28.40;61.80
14873;DHT22;7528;48.576;19.122;2022-07-29T12:54:04;28.60;62.20
14873;DHT22;7528;48.576;19.122;2022-07-29T12:59:14;28.90;61.70
14873;DHT22;7528;48.576;19.122;2022-07-29T13:04:27;28.80;61.40
14873;DHT22;7528;48.576;19.122;2022-07-29T13:09:38;29.00;60.60
14873;DHT22;7528;48.576;19.122;2022-07-29T13:14:45;29.20;61.30
14873;DHT22;7528;48.576;19.122;2022-07-29T13:19:50;29.50;62.50
14873;DHT22;7528;48.576;19.122;2022-07-29T13:24:54;29.60;59.70
14873;DHT22;7528;48.576;19.122;2022-07-29T13:30:02;29.60;63.70
14873;DHT22;7528;48.576;19.122;2022-07-29T13:35:07;29.50;66.40
14873;DHT22;7528;48.576;19.122;2022-07-29T13:40:12;29.60;66.60
14873;DHT22;7528;48.576;19.122;2022-07-29T13:45:17;29.80;59.30
14873;DHT22;7528;48.576;19.122;2022-07-29T13:50:20;29.80;58.50
14873;DHT22;7528;48.576;19.122;2022-07-29T13:55:23;29.80;58.50
14873;DHT22;7528;48.576;19.122;2022-07-29T14:00:28;29.80;60.80
14873;DHT22;7528;48.576;19.122;2022-07-29T14:05:31;29.70;64.80
14873;DHT22;7528;48.576;19.122;2022-07-29T14:10:34;29.60;63.50
14873;DHT22;7528;48.576;19.122;2022-07-29T14:15:39;29.60;67.20
14873;DHT22;7528;48.576;19.122;2022-07-29T14:20:42;29.60;65.10
14873;DHT22;7528;48.576;19.122;2022-07-29T14:25:45;29.50;67.40
14873;DHT22;7528;48.576;19.122;2022-07-29T14:30:50;29.60;64.80
14873;DHT22;7528;48.576;19.122;2022-07-29T14:35:53;29.60;62.40
14873;DHT22;7528;48.576;19.122;2022-07-29T14:40:56;29.70;61.90
14873;DHT22;7528;48.576;19.122;2022-07-29T14:46:00;29.70;58.80
14873;DHT22;7528;48.576;19.122;2022-07-29T14:51:04;29.80;59.30
14873;DHT22;7528;48.576;19.122;2022-07-29T14:56:07;29.80;59.60
14873;DHT22;7528;48.576;19.122;2022-07-29T15:01:11;29.90;56.70
14873;DHT22;7528;48.576;19.122;2022-07-29T15:06:15;29.90;63.70
14873;DHT22;7528;48.576;19.122;2022-07-29T15:11:18;29.90;66.70
14873;DHT22;7528;48.576;19.122;2022-07-29T15:16:23;29.80;64.90
14873;DHT22;7528;48.576;19.122;2022-07-29T15:21:26;29.70;63.40
14873;DHT22;7528;48.576;19.122;2022-07-29T15:26:29;29.60;64.90
14873;DHT22;7528;48.576;19.122;2022-07-29T15:31:33;29.50;66.70
14873;DHT22;7528;48.576;19.122;2022-07-29T15:36:36;29.40;66.40
14873;DHT22;7528;48.576;19.122;2022-07-29T15:41:40;29.30;65.90
14873;DHT22;7528;48.576;19.122;2022-07-29T15:46:44;29.30;66.00
14873;DHT22;7528;48.576;19.122;2022-07-29T15:52:07;29.30;65.90
14873;DHT22;7528;48.576;19.122;2022-07-29T15:57:11;29.30;63.70
14873;DHT22;7528;48.576;19.122;2022-07-29T16:02:15;29.30;60.00
14873;DHT22;7528;48.576;19.122;2022-07-29T16:07:19;29.20;63.40
14873;DHT22;7528;48.576;19.122;2022-07-29T16:12:22;29.20;68.30
14873;DHT22;7528;48.576;19.122;2022-07-29T16:17:27;29.20;68.80
14873;DHT22;7528;48.576;19.122;2022-07-29T16:22:30;29.20;66.90
14873;DHT22;7528;48.576;19.122;2022-07-29T16:27:33;29.10;66.90
14873;DHT22;7528;48.576;19.122;2022-07-29T16:32:37;29.00;67.90
14873;DHT22;7528;48.576;19.122;2022-07-29T16:37:40;28.90;67.20
14873;DHT22;7528;48.576;19.122;2022-07-29T16:42:43;28.80;66.50
14873;DHT22;7528;48.576;19.122;2022-07-29T16:47:48;28.70;68.10
14873;DHT22;7528;48.576;19.122;2022-07-29T16:52:51;28.60;69.00
14873;DHT22;7528;48.576;19.122;2022-07-29T16:57:54;28.50;69.20
14873;DHT22;7528;48.576;19.122;2022-07-29T17:02:59;28.40;67.70
14873;DHT22;7528;48.576;19.122;2022-07-29T17:08:02;28.30;66.70
14873;DHT22;7528;48.576;19.122;2022-07-29T17:13:05;28.20;66.80
14873;DHT22;7528;48.576;19.122;2022-07-29T17:18:10;28.10;67.70
14873;DHT22;7528;48.576;19.122;2022-07-29T17:23:13;28.00;69.20
14873;DHT22;7528;48.576;19.122;2022-07-29T17:28:16;27.90;69.80
14873;DHT22;7528;48.576;19.122;2022-07-29T17:33:20;27.80;69.80
14873;DHT22;7528;48.576;19.122;2022-07-29T17:38:24;27.80;70.80
14873;DHT22;7528;48.576;19.122;2022-07-29T17:43:27;27.70;71.50
14873;DHT22;7528;48.576;19.122;2022-07-29T17:48:31;27.60;71.20
14873;DHT22;7528;48.576;19.122;2022-07-29T17:53:34;27.50;65.10
14873;DHT22;7528;48.576;19.122;2022-07-29T17:58:37;27.30;62.00
14873;DHT22;7528;48.576;19.122;2022-07-29T18:03:42;27.30;65.50
14873;DHT22;7528;48.576;19.122;2022-07-29T18:08:45;27.20;66.20
14873;DHT22;7528;48.576;19.122;2022-07-29T18:13:49;27.20;65.50
14873;DHT22;7528;48.576;19.122;2022-07-29T18:18:53;27.20;66.50
14873;DHT22;7528;48.576;19.122;2022-07-29T18:23:56;27.10;64.80
14873;DHT22;7528;48.576;19.122;2022-07-29T18:28:59;27.00;63.20
14873;DHT22;7528;48.576;19.122;2022-07-29T18:34:04;26.90;63.30
14873;DHT22;7528;48.576;19.122;2022-07-29T18:39:07;26.80;65.60
14873;DHT22;7528;48.576;19.122;2022-07-29T18:44:10;26.70;66.70
14873;DHT22;7528;48.576;19.122;2022-07-29T18:49:19;26.60;68.50
14873;DHT22;7528;48.576;19.122;2022-07-29T18:54:22;26.50;69.90
14873;DHT22;7528;48.576;19.122;2022-07-29T18:59:25;26.40;68.70
14873;DHT22;7528;48.576;19.122;2022-07-29T19:04:32;26.30;68.50
14873;DHT22;7528;48.576;19.122;2022-07-29T19:09:35;26.30;69.20
14873;DHT22;7528;48.576;19.122;2022-07-29T19:14:38;26.20;69.20
14873;DHT22;7528;48.576;19.122;2022-07-29T19:19:42;26.10;69.00
14873;DHT22;7528;48.576;19.122;2022-07-29T19:24:46;26.00;69.30
14873;DHT22;7528;48.576;19.122;2022-07-29T19:29:49;25.90;69.80
14873;DHT22;7528;48.576;19.122;2022-07-29T19:34:53;25.80;69.80
14873;DHT22;7528;48.576;19.122;2022-07-29T19:40:14;25.80;69.40
14873;DHT22;7528;48.576;19.122;2022-07-29T19:45:17;25.70;70.50
14873;DHT22;7528;48.576;19.122;2022-07-29T19:50:22;25.60;71.20
14873;DHT22;7528;48.576;19.122;2022-07-29T19:55:26;25.60;71.90
14873;DHT22;7528;48.576;19.122;2022-07-29T20:00:29;25.50;72.20
14873;DHT22;7528;48.576;19.122;2022-07-29T20:05:34;25.50;73.60
14873;DHT22;7528;48.576;19.122;2022-07-29T20:10:38;25.40;74.40
14873;DHT22;7528;48.576;19.122;2022-07-29T20:15:41;25.30;74.60
14873;DHT22;7528;48.576;19.122;2022-07-29T20:20:45;25.30;74.50
14873;DHT22;7528;48.576;19.122;2022-07-29T20:25:50;25.30;74.10
14873;DHT22;7528;48.576;19.122;2022-07-29T20:30:53;25.30;73.10
14873;DHT22;7528;48.576;19.122;2022-07-29T20:35:57;25.10;69.80
14873;DHT22;7528;48.576;19.122;2022-07-29T20:41:00;25.10;70.70
14873;DHT22;7528;48.576;19.122;2022-07-29T20:46:03;25.10;71.10
14873;DHT22;7528;48.576;19.122;2022-07-29T20:51:08;25.00;72.40
14873;DHT22;7528;48.576;19.122;2022-07-29T20:56:11;24.80;71.30
14873;DHT22;7528;48.576;19.122;2022-07-29T21:01:14;24.70;71.60
14873;DHT22;7528;48.576;19.122;2022-07-29T21:06:18;24.70;71.90
14873;DHT22;7528;48.576;19.122;2022-07-29T21:11:21;24.70;72.50
14873;DHT22;7528;48.576;19.122;2022-07-29T21:16:24;24.60;73.10
14873;DHT22;7528;48.576;19.122;2022-07-29T21:21:30;24.60;72.70
14873;DHT22;7528;48.576;19.122;2022-07-29T21:26:33;24.40;73.90
14873;DHT22;7528;48.576;19.122;2022-07-29T21:31:36;24.50;73.00
14873;DHT22;7528;48.576;19.122;2022-07-29T21:36:42;24.40;73.40
14873;DHT22;7528;48.576;19.122;2022-07-29T21:41:48;24.40;73.00
14873;DHT22;7528;48.576;19.122;2022-07-29T21:46:51;24.30;73.70
14873;DHT22;7528;48.576;19.122;2022-07-29T21:51:56;24.30;74.30
14873;DHT22;7528;48.576;19.122;2022-07-29T21:56:59;24.10;74.90
14873;DHT22;7528;48.576;19.122;2022-07-29T22:02:02;24.10;75.60
14873;DHT22;7528;48.576;19.122;2022-07-29T22:07:07;24.10;75.60
14873;DHT22;7528;48.576;19.122;2022-07-29T22:12:10;24.00;75.90
14873;DHT22;7528;48.576;19.122;2022-07-29T22:17:13;24.00;76.40
14873;DHT22;7528;48.576;19.122;2022-07-29T22:22:18;24.00;76.80
14873;DHT22;7528;48.576;19.122;2022-07-29T22:27:21;24.00;78.20
14873;DHT22;7528;48.576;19.122;2022-07-29T22:32:24;24.10;78.40
14873;DHT22;7528;48.576;19.122;2022-07-29T22:37:29;24.10;78.60
14873;DHT22;7528;48.576;19.122;2022-07-29T22:42:32;24.00;78.70
14873;DHT22;7528;48.576;19.122;2022-07-29T22:47:36;24.00;79.30
14873;DHT22;7528;48.576;19.122;2022-07-29T22:52:40;24.00;79.90
14873;DHT22;7528;48.576;19.122;2022-07-29T22:57:43;24.00;80.50
14873;DHT22;7528;48.576;19.122;2022-07-29T23:02:46;23.80;80.60
14873;DHT22;7528;48.576;19.122;2022-07-29T23:07:51;23.70;81.20
14873;DHT22;7528;48.576;19.122;2022-07-29T23:12:54;23.70;82.10
14873;DHT22;7528;48.576;19.122;2022-07-29T23:17:57;23.70;81.70
14873;DHT22;7528;48.576;19.122;2022-07-29T23:23:02;23.60;81.30
14873;DHT22;7528;48.576;19.122;2022-07-29T23:28:06;23.60;82.00
14873;DHT22;7528;48.576;19.122;2022-07-29T23:33:09;23.60;82.30
14873;DHT22;7528;48.576;19.122;2022-07-29T23:38:13;23.70;82.10
14873;DHT22;7528;48.576;19.122;2022-07-29T23:43:17;23.60;82.00
14873;DHT22;7528;48.576;19.122;2022-07-29T23:48:20;23.60;81.90
14873;DHT22;7528;48.576;19.122;2022-07-29T23:53:24;23.60;82.50
14873;DHT22;7528;48.576;19.122;2022-07-29T23:58:28;23.60;82.70
